Harbor Isle, New York
Current Conditions -  °F | °C
As of 12:51 PM on Sunday 25 Jan 2015 (Local Time) from KJFK Reporting Station
Broken Clouds Broken Clouds  
Wind Chill: 38°   Ceiling: 23000
Heat Index: 45°   Visibility: 10mi
Dew Point: 16°   Wind: 17mph
Humidity: 31%   Direction: 290°WNW
Pressure: 29.78"   Gusts: 24mph
Location:  40.6062°N, 73.6508°W
Report Text: KJFK 251751Z 29015G21KT 10SM FEW039 BKN230 07/M09 A2978 RMK AO2 PK WND 31029/1711 SLP084 T00721089 10072 20017 53008 $
Loading
Personal Weather Stations






























Interactive Weather Map New forecast layout! Learn more

10-Day Weather Forecast

Advertisements
Track Severe Weather on mobile